sensor_id;sensor_type;location;lat;lon;timestamp;P1;durP1;ratioP1;P2;durP2;ratioP2
74670;SDS011;63196;39.564;2.628;2022-12-29T00:01:39;5.40;;;2.20;;
74670;SDS011;63196;39.564;2.628;2022-12-29T00:04:05;4.00;;;1.80;;
74670;SDS011;63196;39.564;2.628;2022-12-29T00:06:31;4.40;;;1.50;;
74670;SDS011;63196;39.564;2.628;2022-12-29T00:08:56;5.10;;;1.50;;
74670;SDS011;63196;39.564;2.628;2022-12-29T00:11:22;7.00;;;2.10;;
74670;SDS011;63196;39.564;2.628;2022-12-29T00:13:48;5.70;;;2.00;;
74670;SDS011;63196;39.564;2.628;2022-12-29T00:16:33;7.80;;;2.30;;
74670;SDS011;63196;39.564;2.628;2022-12-29T00:18:59;7.10;;;2.10;;
74670;SDS011;63196;39.564;2.628;2022-12-29T00:21:24;4.50;;;1.80;;
74670;SDS011;63196;39.564;2.628;2022-12-29T00:24:16;5.50;;;2.00;;
74670;SDS011;63196;39.564;2.628;2022-12-29T00:26:56;4.60;;;2.20;;
74670;SDS011;63196;39.564;2.628;2022-12-29T00:29:41;5.00;;;2.50;;
74670;SDS011;63196;39.564;2.628;2022-12-29T00:32:25;4.70;;;2.00;;
74670;SDS011;63196;39.564;2.628;2022-12-29T00:35:11;5.90;;;1.80;;
74670;SDS011;63196;39.564;2.628;2022-12-29T00:37:38;5.30;;;1.70;;
74670;SDS011;63196;39.564;2.628;2022-12-29T00:40:24;5.10;;;1.70;;
74670;SDS011;63196;39.564;2.628;2022-12-29T00:43:08;4.90;;;2.00;;
74670;SDS011;63196;39.564;2.628;2022-12-29T00:45:52;5.20;;;2.00;;
74670;SDS011;63196;39.564;2.628;2022-12-29T00:48:17;4.50;;;2.00;;
74670;SDS011;63196;39.564;2.628;2022-12-29T00:51:02;5.70;;;2.30;;
74670;SDS011;63196;39.564;2.628;2022-12-29T00:53:28;6.30;;;2.00;;
74670;SDS011;63196;39.564;2.628;2022-12-29T00:55:53;5.10;;;1.60;;
74670;SDS011;63196;39.564;2.628;2022-12-29T00:58:18;4.90;;;2.10;;
74670;SDS011;63196;39.564;2.628;2022-12-29T01:00:44;6.30;;;1.90;;
74670;SDS011;63196;39.564;2.628;2022-12-29T01:03:09;4.90;;;2.10;;
74670;SDS011;63196;39.564;2.628;2022-12-29T01:05:38;7.10;;;1.70;;
74670;SDS011;63196;39.564;2.628;2022-12-29T01:08:03;5.10;;;2.00;;
74670;SDS011;63196;39.564;2.628;2022-12-29T01:10:29;3.90;;;1.90;;
74670;SDS011;63196;39.564;2.628;2022-12-29T01:12:54;4.50;;;1.80;;
74670;SDS011;63196;39.564;2.628;2022-12-29T01:15:20;4.30;;;1.50;;
74670;SDS011;63196;39.564;2.628;2022-12-29T01:17:46;5.60;;;1.70;;
74670;SDS011;63196;39.564;2.628;2022-12-29T01:20:12;5.20;;;2.10;;
74670;SDS011;63196;39.564;2.628;2022-12-29T01:22:38;5.20;;;1.90;;
74670;SDS011;63196;39.564;2.628;2022-12-29T01:25:04;4.50;;;2.10;;
74670;SDS011;63196;39.564;2.628;2022-12-29T01:27:30;5.60;;;2.70;;
74670;SDS011;63196;39.564;2.628;2022-12-29T01:29:55;5.90;;;2.80;;
74670;SDS011;63196;39.564;2.628;2022-12-29T01:32:21;5.10;;;2.40;;
74670;SDS011;63196;39.564;2.628;2022-12-29T01:34:46;3.70;;;1.80;;
74670;SDS011;63196;39.564;2.628;2022-12-29T01:37:12;5.40;;;2.10;;
74670;SDS011;63196;39.564;2.628;2022-12-29T01:39:37;6.40;;;2.20;;
74670;SDS011;63196;39.564;2.628;2022-12-29T01:42:02;8.60;;;2.40;;
74670;SDS011;63196;39.564;2.628;2022-12-29T01:47:14;6.50;;;1.90;;
74670;SDS011;63196;39.564;2.628;2022-12-29T01:49:42;3.70;;;1.70;;
74670;SDS011;63196;39.564;2.628;2022-12-29T01:52:08;4.40;;;2.10;;
74670;SDS011;63196;39.564;2.628;2022-12-29T01:54:52;4.90;;;2.10;;
74670;SDS011;63196;39.564;2.628;2022-12-29T01:57:26;5.30;;;1.90;;
74670;SDS011;63196;39.564;2.628;2022-12-29T01:59:53;6.00;;;1.80;;
74670;SDS011;63196;39.564;2.628;2022-12-29T02:02:19;6.70;;;2.50;;
74670;SDS011;63196;39.564;2.628;2022-12-29T02:04:45;7.40;;;3.10;;
74670;SDS011;63196;39.564;2.628;2022-12-29T02:07:13;7.20;;;3.30;;
74670;SDS011;63196;39.564;2.628;2022-12-29T02:09:40;6.90;;;3.00;;
74670;SDS011;63196;39.564;2.628;2022-12-29T02:12:07;7.00;;;2.80;;
74670;SDS011;63196;39.564;2.628;2022-12-29T02:14:32;4.60;;;1.60;;
74670;SDS011;63196;39.564;2.628;2022-12-29T02:30:12;6.20;;;2.10;;
74670;SDS011;63196;39.564;2.628;2022-12-29T02:38:01;5.20;;;2.40;;
74670;SDS011;63196;39.564;2.628;2022-12-29T02:40:39;6.40;;;2.80;;
74670;SDS011;63196;39.564;2.628;2022-12-29T02:51:03;5.10;;;1.60;;
74670;SDS011;63196;39.564;2.628;2022-12-29T02:53:30;4.90;;;1.80;;
74670;SDS011;63196;39.564;2.628;2022-12-29T02:56:15;4.30;;;1.40;;
74670;SDS011;63196;39.564;2.628;2022-12-29T02:58:41;6.40;;;1.70;;
74670;SDS011;63196;39.564;2.628;2022-12-29T03:08:48;5.20;;;2.00;;
74670;SDS011;63196;39.564;2.628;2022-12-29T03:11:15;5.40;;;1.70;;
74670;SDS011;63196;39.564;2.628;2022-12-29T03:14:06;6.00;;;1.80;;
74670;SDS011;63196;39.564;2.628;2022-12-29T03:16:55;5.50;;;1.60;;
74670;SDS011;63196;39.564;2.628;2022-12-29T03:21:49;6.30;;;1.60;;
74670;SDS011;63196;39.564;2.628;2022-12-29T03:24:38;4.10;;;1.90;;
74670;SDS011;63196;39.564;2.628;2022-12-29T03:27:05;4.10;;;2.00;;
74670;SDS011;63196;39.564;2.628;2022-12-29T03:29:33;6.00;;;1.90;;
74670;SDS011;63196;39.564;2.628;2022-12-29T03:32:00;5.90;;;2.00;;
74670;SDS011;63196;39.564;2.628;2022-12-29T03:34:26;3.60;;;1.50;;
74670;SDS011;63196;39.564;2.628;2022-12-29T03:36:54;4.20;;;1.80;;
74670;SDS011;63196;39.564;2.628;2022-12-29T03:39:21;6.60;;;2.30;;
74670;SDS011;63196;39.564;2.628;2022-12-29T03:41:48;5.60;;;2.00;;
74670;SDS011;63196;39.564;2.628;2022-12-29T03:44:15;6.70;;;1.90;;
74670;SDS011;63196;39.564;2.628;2022-12-29T03:46:40;8.20;;;3.10;;
74670;SDS011;63196;39.564;2.628;2022-12-29T03:49:06;6.80;;;2.10;;
74670;SDS011;63196;39.564;2.628;2022-12-29T03:51:31;4.10;;;1.70;;
74670;SDS011;63196;39.564;2.628;2022-12-29T03:53:57;8.10;;;2.10;;
74670;SDS011;63196;39.564;2.628;2022-12-29T03:56:22;4.80;;;2.10;;
74670;SDS011;63196;39.564;2.628;2022-12-29T03:58:47;4.20;;;1.80;;
74670;SDS011;63196;39.564;2.628;2022-12-29T04:01:13;5.40;;;1.90;;
74670;SDS011;63196;39.564;2.628;2022-12-29T04:03:38;10.50;;;2.40;;
74670;SDS011;63196;39.564;2.628;2022-12-29T04:06:04;6.90;;;2.40;;
74670;SDS011;63196;39.564;2.628;2022-12-29T04:08:29;5.30;;;2.60;;
74670;SDS011;63196;39.564;2.628;2022-12-29T04:10:55;4.90;;;1.80;;
74670;SDS011;63196;39.564;2.628;2022-12-29T04:13:20;4.70;;;1.80;;
74670;SDS011;63196;39.564;2.628;2022-12-29T04:15:45;5.30;;;2.40;;
74670;SDS011;63196;39.564;2.628;2022-12-29T04:18:11;6.20;;;2.30;;
74670;SDS011;63196;39.564;2.628;2022-12-29T04:20:37;5.90;;;2.50;;
74670;SDS011;63196;39.564;2.628;2022-12-29T04:23:21;6.50;;;3.00;;
74670;SDS011;63196;39.564;2.628;2022-12-29T04:25:46;6.80;;;2.80;;
74670;SDS011;63196;39.564;2.628;2022-12-29T04:28:15;9.70;;;3.40;;
74670;SDS011;63196;39.564;2.628;2022-12-29T04:30:40;4.90;;;2.00;;
74670;SDS011;63196;39.564;2.628;2022-12-29T04:33:06;5.60;;;2.20;;
74670;SDS011;63196;39.564;2.628;2022-12-29T04:35:31;6.30;;;2.30;;
74670;SDS011;63196;39.564;2.628;2022-12-29T04:37:57;5.30;;;2.10;;
74670;SDS011;63196;39.564;2.628;2022-12-29T04:40:22;3.80;;;1.70;;
74670;SDS011;63196;39.564;2.628;2022-12-29T04:42:49;6.10;;;2.50;;
74670;SDS011;63196;39.564;2.628;2022-12-29T04:45:14;5.30;;;2.70;;
74670;SDS011;63196;39.564;2.628;2022-12-29T04:47:40;5.60;;;2.60;;
74670;SDS011;63196;39.564;2.628;2022-12-29T04:50:05;4.80;;;1.70;;
74670;SDS011;63196;39.564;2.628;2022-12-29T04:52:31;4.60;;;1.80;;
74670;SDS011;63196;39.564;2.628;2022-12-29T04:54:56;3.70;;;1.70;;
74670;SDS011;63196;39.564;2.628;2022-12-29T04:57:22;5.90;;;1.70;;
74670;SDS011;63196;39.564;2.628;2022-12-29T04:59:47;4.60;;;2.30;;
74670;SDS011;63196;39.564;2.628;2022-12-29T05:02:12;5.70;;;2.60;;
74670;SDS011;63196;39.564;2.628;2022-12-29T05:04:38;7.30;;;2.60;;
74670;SDS011;63196;39.564;2.628;2022-12-29T05:07:03;4.60;;;2.20;;
74670;SDS011;63196;39.564;2.628;2022-12-29T05:09:28;6.40;;;1.90;;
74670;SDS011;63196;39.564;2.628;2022-12-29T05:11:55;5.30;;;1.90;;
74670;SDS011;63196;39.564;2.628;2022-12-29T05:14:20;6.70;;;2.10;;
74670;SDS011;63196;39.564;2.628;2022-12-29T05:16:45;4.40;;;2.20;;
74670;SDS011;63196;39.564;2.628;2022-12-29T05:19:11;7.20;;;1.90;;
74670;SDS011;63196;39.564;2.628;2022-12-29T05:21:36;5.60;;;2.00;;
74670;SDS011;63196;39.564;2.628;2022-12-29T05:24:02;5.40;;;1.80;;
74670;SDS011;63196;39.564;2.628;2022-12-29T05:26:27;4.80;;;1.90;;
74670;SDS011;63196;39.564;2.628;2022-12-29T05:28:52;4.20;;;1.80;;
74670;SDS011;63196;39.564;2.628;2022-12-29T05:31:18;3.50;;;1.40;;
74670;SDS011;63196;39.564;2.628;2022-12-29T05:33:43;4.00;;;1.40;;
74670;SDS011;63196;39.564;2.628;2022-12-29T05:36:09;3.80;;;2.00;;
74670;SDS011;63196;39.564;2.628;2022-12-29T05:38:34;6.50;;;2.40;;
74670;SDS011;63196;39.564;2.628;2022-12-29T05:41:00;5.70;;;2.10;;
74670;SDS011;63196;39.564;2.628;2022-12-29T05:43:25;4.80;;;2.60;;
74670;SDS011;63196;39.564;2.628;2022-12-29T05:45:51;5.60;;;2.00;;
74670;SDS011;63196;39.564;2.628;2022-12-29T05:48:16;4.00;;;2.20;;
74670;SDS011;63196;39.564;2.628;2022-12-29T05:50:42;6.90;;;2.60;;
74670;SDS011;63196;39.564;2.628;2022-12-29T05:53:07;6.90;;;2.10;;
74670;SDS011;63196;39.564;2.628;2022-12-29T05:55:33;7.60;;;2.60;;
74670;SDS011;63196;39.564;2.628;2022-12-29T05:57:59;5.30;;;2.20;;
74670;SDS011;63196;39.564;2.628;2022-12-29T06:00:24;6.30;;;2.40;;
74670;SDS011;63196;39.564;2.628;2022-12-29T06:02:49;4.60;;;2.10;;
74670;SDS011;63196;39.564;2.628;2022-12-29T06:05:15;6.00;;;2.60;;
74670;SDS011;63196;39.564;2.628;2022-12-29T06:07:40;5.90;;;2.80;;
74670;SDS011;63196;39.564;2.628;2022-12-29T06:10:06;7.70;;;2.20;;
74670;SDS011;63196;39.564;2.628;2022-12-29T06:12:32;5.50;;;2.50;;
74670;SDS011;63196;39.564;2.628;2022-12-29T06:14:57;5.40;;;2.50;;
74670;SDS011;63196;39.564;2.628;2022-12-29T06:17:22;4.40;;;2.50;;
74670;SDS011;63196;39.564;2.628;2022-12-29T06:19:48;5.20;;;2.40;;
74670;SDS011;63196;39.564;2.628;2022-12-29T06:22:13;4.80;;;2.20;;
74670;SDS011;63196;39.564;2.628;2022-12-29T06:24:38;5.30;;;2.50;;
74670;SDS011;63196;39.564;2.628;2022-12-29T06:27:04;5.00;;;2.50;;
74670;SDS011;63196;39.564;2.628;2022-12-29T06:29:29;6.30;;;2.90;;
74670;SDS011;63196;39.564;2.628;2022-12-29T06:31:55;5.80;;;2.40;;
74670;SDS011;63196;39.564;2.628;2022-12-29T06:34:23;6.50;;;2.70;;
74670;SDS011;63196;39.564;2.628;2022-12-29T06:36:49;6.50;;;2.50;;
74670;SDS011;63196;39.564;2.628;2022-12-29T06:39:14;6.70;;;2.40;;
74670;SDS011;63196;39.564;2.628;2022-12-29T06:41:39;6.60;;;3.00;;
74670;SDS011;63196;39.564;2.628;2022-12-29T06:44:05;7.00;;;2.90;;
74670;SDS011;63196;39.564;2.628;2022-12-29T06:46:30;5.40;;;2.80;;
74670;SDS011;63196;39.564;2.628;2022-12-29T06:48:56;7.10;;;2.90;;
74670;SDS011;63196;39.564;2.628;2022-12-29T06:51:21;5.60;;;2.50;;
74670;SDS011;63196;39.564;2.628;2022-12-29T06:53:47;5.00;;;2.80;;
74670;SDS011;63196;39.564;2.628;2022-12-29T06:56:12;7.10;;;2.90;;
74670;SDS011;63196;39.564;2.628;2022-12-29T06:58:37;5.40;;;2.50;;
74670;SDS011;63196;39.564;2.628;2022-12-29T07:01:03;7.60;;;3.30;;
74670;SDS011;63196;39.564;2.628;2022-12-29T07:03:28;6.80;;;3.80;;
74670;SDS011;63196;39.564;2.628;2022-12-29T07:05:54;10.10;;;4.60;;
74670;SDS011;63196;39.564;2.628;2022-12-29T07:08:19;8.20;;;4.20;;
74670;SDS011;63196;39.564;2.628;2022-12-29T07:10:45;7.50;;;3.40;;
74670;SDS011;63196;39.564;2.628;2022-12-29T07:13:10;8.40;;;4.40;;
74670;SDS011;63196;39.564;2.628;2022-12-29T07:15:36;11.20;;;5.10;;
74670;SDS011;63196;39.564;2.628;2022-12-29T07:18:02;6.90;;;2.90;;
74670;SDS011;63196;39.564;2.628;2022-12-29T07:20:28;5.60;;;2.30;;
74670;SDS011;63196;39.564;2.628;2022-12-29T07:22:53;8.00;;;2.60;;
74670;SDS011;63196;39.564;2.628;2022-12-29T07:25:19;5.90;;;2.70;;
74670;SDS011;63196;39.564;2.628;2022-12-29T07:27:44;8.80;;;3.30;;
74670;SDS011;63196;39.564;2.628;2022-12-29T07:30:09;9.90;;;3.20;;
74670;SDS011;63196;39.564;2.628;2022-12-29T07:32:35;9.30;;;3.70;;
74670;SDS011;63196;39.564;2.628;2022-12-29T07:35:01;10.30;;;3.20;;
74670;SDS011;63196;39.564;2.628;2022-12-29T07:37:26;10.30;;;4.30;;
74670;SDS011;63196;39.564;2.628;2022-12-29T07:39:52;8.00;;;4.10;;
74670;SDS011;63196;39.564;2.628;2022-12-29T07:42:18;7.50;;;3.80;;
74670;SDS011;63196;39.564;2.628;2022-12-29T07:44:43;8.20;;;3.30;;
74670;SDS011;63196;39.564;2.628;2022-12-29T07:47:09;8.50;;;3.30;;
74670;SDS011;63196;39.564;2.628;2022-12-29T07:49:34;7.20;;;3.50;;
74670;SDS011;63196;39.564;2.628;2022-12-29T07:51:59;11.30;;;4.00;;
74670;SDS011;63196;39.564;2.628;2022-12-29T07:54:25;11.00;;;3.90;;
74670;SDS011;63196;39.564;2.628;2022-12-29T07:56:50;7.60;;;3.50;;
74670;SDS011;63196;39.564;2.628;2022-12-29T07:59:16;10.30;;;3.80;;
74670;SDS011;63196;39.564;2.628;2022-12-29T08:01:41;6.90;;;3.30;;
74670;SDS011;63196;39.564;2.628;2022-12-29T08:04:07;8.50;;;4.00;;
74670;SDS011;63196;39.564;2.628;2022-12-29T08:06:32;10.80;;;3.90;;
74670;SDS011;63196;39.564;2.628;2022-12-29T08:08:58;7.30;;;2.90;;
74670;SDS011;63196;39.564;2.628;2022-12-29T08:11:25;8.50;;;3.50;;
74670;SDS011;63196;39.564;2.628;2022-12-29T08:13:50;7.50;;;3.20;;
74670;SDS011;63196;39.564;2.628;2022-12-29T08:16:16;9.60;;;3.40;;
74670;SDS011;63196;39.564;2.628;2022-12-29T08:18:41;6.60;;;3.70;;
74670;SDS011;63196;39.564;2.628;2022-12-29T08:21:06;10.00;;;3.30;;
74670;SDS011;63196;39.564;2.628;2022-12-29T08:23:32;8.70;;;4.00;;
74670;SDS011;63196;39.564;2.628;2022-12-29T08:25:58;6.40;;;4.20;;
74670;SDS011;63196;39.564;2.628;2022-12-29T08:28:24;6.70;;;4.10;;
74670;SDS011;63196;39.564;2.628;2022-12-29T08:30:49;6.60;;;3.30;;
74670;SDS011;63196;39.564;2.628;2022-12-29T08:33:14;7.20;;;3.30;;
74670;SDS011;63196;39.564;2.628;2022-12-29T08:35:40;8.00;;;3.80;;
74670;SDS011;63196;39.564;2.628;2022-12-29T08:38:05;7.20;;;3.50;;
74670;SDS011;63196;39.564;2.628;2022-12-29T08:40:30;8.40;;;4.70;;
74670;SDS011;63196;39.564;2.628;2022-12-29T08:42:56;9.90;;;4.30;;
74670;SDS011;63196;39.564;2.628;2022-12-29T08:45:21;8.80;;;3.90;;
74670;SDS011;63196;39.564;2.628;2022-12-29T08:47:46;7.40;;;3.50;;
74670;SDS011;63196;39.564;2.628;2022-12-29T08:50:12;6.00;;;3.70;;
74670;SDS011;63196;39.564;2.628;2022-12-29T08:52:37;8.10;;;3.80;;
74670;SDS011;63196;39.564;2.628;2022-12-29T08:55:03;9.20;;;4.40;;
74670;SDS011;63196;39.564;2.628;2022-12-29T08:57:28;10.20;;;4.30;;
74670;SDS011;63196;39.564;2.628;2022-12-29T08:59:54;12.20;;;4.80;;
74670;SDS011;63196;39.564;2.628;2022-12-29T09:02:19;9.90;;;5.20;;
74670;SDS011;63196;39.564;2.628;2022-12-29T09:04:44;9.50;;;5.10;;
74670;SDS011;63196;39.564;2.628;2022-12-29T09:07:10;9.30;;;4.80;;
74670;SDS011;63196;39.564;2.628;2022-12-29T09:09:36;10.50;;;5.10;;
74670;SDS011;63196;39.564;2.628;2022-12-29T09:12:01;8.40;;;4.30;;
74670;SDS011;63196;39.564;2.628;2022-12-29T09:14:26;10.00;;;4.80;;
74670;SDS011;63196;39.564;2.628;2022-12-29T09:16:52;14.60;;;5.20;;
74670;SDS011;63196;39.564;2.628;2022-12-29T09:19:36;9.70;;;4.90;;
74670;SDS011;63196;39.564;2.628;2022-12-29T09:22:02;12.00;;;5.40;;
74670;SDS011;63196;39.564;2.628;2022-12-29T09:24:28;11.00;;;5.30;;
74670;SDS011;63196;39.564;2.628;2022-12-29T09:26:53;9.80;;;4.60;;
74670;SDS011;63196;39.564;2.628;2022-12-29T09:29:18;9.50;;;5.10;;
74670;SDS011;63196;39.564;2.628;2022-12-29T09:31:44;11.40;;;5.20;;
74670;SDS011;63196;39.564;2.628;2022-12-29T09:34:09;11.20;;;5.70;;
74670;SDS011;63196;39.564;2.628;2022-12-29T09:36:34;15.30;;;5.30;;
74670;SDS011;63196;39.564;2.628;2022-12-29T09:39:00;12.60;;;5.90;;
74670;SDS011;63196;39.564;2.628;2022-12-29T09:41:29;11.00;;;5.80;;
74670;SDS011;63196;39.564;2.628;2022-12-29T09:46:34;11.50;;;6.80;;
74670;SDS011;63196;39.564;2.628;2022-12-29T09:51:46;16.80;;;8.00;;
74670;SDS011;63196;39.564;2.628;2022-12-29T09:56:41;14.80;;;7.70;;
74670;SDS011;63196;39.564;2.628;2022-12-29T09:59:11;16.20;;;8.60;;
74670;SDS011;63196;39.564;2.628;2022-12-29T10:04:22;14.80;;;8.30;;
74670;SDS011;63196;39.564;2.628;2022-12-29T10:06:56;13.60;;;8.00;;
74670;SDS011;63196;39.564;2.628;2022-12-29T10:16:55;10.60;;;5.80;;
74670;SDS011;63196;39.564;2.628;2022-12-29T10:24:13;9.40;;;4.60;;
74670;SDS011;63196;39.564;2.628;2022-12-29T10:26:40;8.40;;;3.60;;
74670;SDS011;63196;39.564;2.628;2022-12-29T10:29:06;10.80;;;3.40;;
74670;SDS011;63196;39.564;2.628;2022-12-29T10:31:33;6.90;;;3.00;;
74670;SDS011;63196;39.564;2.628;2022-12-29T10:34:02;10.70;;;3.60;;
74670;SDS011;63196;39.564;2.628;2022-12-29T10:41:31;7.10;;;2.90;;
74670;SDS011;63196;39.564;2.628;2022-12-29T10:43:57;7.00;;;2.80;;
74670;SDS011;63196;39.564;2.628;2022-12-29T10:46:26;7.00;;;2.80;;
74670;SDS011;63196;39.564;2.628;2022-12-29T10:51:21;6.20;;;2.50;;
74670;SDS011;63196;39.564;2.628;2022-12-29T10:54:11;8.60;;;3.30;;
74670;SDS011;63196;39.564;2.628;2022-12-29T10:56:34;9.60;;;3.10;;
74670;SDS011;63196;39.564;2.628;2022-12-29T11:01:27;8.90;;;2.70;;
74670;SDS011;63196;39.564;2.628;2022-12-29T11:04:02;7.20;;;2.60;;
74670;SDS011;63196;39.564;2.628;2022-12-29T11:06:28;5.90;;;3.00;;
74670;SDS011;63196;39.564;2.628;2022-12-29T11:09:14;5.70;;;2.40;;
74670;SDS011;63196;39.564;2.628;2022-12-29T11:11:40;7.60;;;2.90;;
74670;SDS011;63196;39.564;2.628;2022-12-29T11:14:13;6.50;;;2.90;;
74670;SDS011;63196;39.564;2.628;2022-12-29T11:16:39;5.50;;;2.30;;
74670;SDS011;63196;39.564;2.628;2022-12-29T11:19:19;6.70;;;2.50;;
74670;SDS011;63196;39.564;2.628;2022-12-29T11:21:44;8.50;;;2.80;;
74670;SDS011;63196;39.564;2.628;2022-12-29T11:24:23;6.80;;;2.50;;
74670;SDS011;63196;39.564;2.628;2022-12-29T11:26:50;7.50;;;2.50;;
74670;SDS011;63196;39.564;2.628;2022-12-29T11:29:22;6.50;;;2.50;;
74670;SDS011;63196;39.564;2.628;2022-12-29T11:34:46;8.40;;;3.20;;
74670;SDS011;63196;39.564;2.628;2022-12-29T11:42:16;10.50;;;3.10;;
74670;SDS011;63196;39.564;2.628;2022-12-29T11:44:43;9.60;;;3.30;;
74670;SDS011;63196;39.564;2.628;2022-12-29T11:47:10;6.30;;;2.40;;
74670;SDS011;63196;39.564;2.628;2022-12-29T11:49:36;9.10;;;2.50;;
74670;SDS011;63196;39.564;2.628;2022-12-29T11:52:02;7.40;;;2.50;;
74670;SDS011;63196;39.564;2.628;2022-12-29T11:54:29;8.50;;;2.40;;
74670;SDS011;63196;39.564;2.628;2022-12-29T11:56:56;5.20;;;1.80;;
74670;SDS011;63196;39.564;2.628;2022-12-29T12:01:57;6.20;;;2.00;;
74670;SDS011;63196;39.564;2.628;2022-12-29T12:04:23;6.70;;;2.10;;
74670;SDS011;63196;39.564;2.628;2022-12-29T12:06:56;4.40;;;1.90;;
74670;SDS011;63196;39.564;2.628;2022-12-29T12:09:25;6.90;;;2.30;;
74670;SDS011;63196;39.564;2.628;2022-12-29T12:11:52;5.20;;;2.00;;
74670;SDS011;63196;39.564;2.628;2022-12-29T12:16:53;5.80;;;1.80;;
74670;SDS011;63196;39.564;2.628;2022-12-29T12:21:56;6.60;;;2.10;;
74670;SDS011;63196;39.564;2.628;2022-12-29T12:26:57;4.90;;;1.60;;
74670;SDS011;63196;39.564;2.628;2022-12-29T12:29:34;6.40;;;1.70;;
74670;SDS011;63196;39.564;2.628;2022-12-29T12:32:04;7.20;;;2.00;;
74670;SDS011;63196;39.564;2.628;2022-12-29T12:34:36;6.40;;;1.80;;
74670;SDS011;63196;39.564;2.628;2022-12-29T12:39:37;4.80;;;1.60;;
74670;SDS011;63196;39.564;2.628;2022-12-29T12:44:56;6.00;;;1.80;;
74670;SDS011;63196;39.564;2.628;2022-12-29T12:50:24;6.60;;;1.80;;
74670;SDS011;63196;39.564;2.628;2022-12-29T12:52:57;7.90;;;1.70;;
74670;SDS011;63196;39.564;2.628;2022-12-29T12:55:31;6.40;;;1.60;;
74670;SDS011;63196;39.564;2.628;2022-12-29T12:58:12;7.80;;;1.90;;
74670;SDS011;63196;39.564;2.628;2022-12-29T13:01:04;7.90;;;1.90;;
74670;SDS011;63196;39.564;2.628;2022-12-29T13:16:12;17.00;;;2.90;;
74670;SDS011;63196;39.564;2.628;2022-12-29T13:36:20;5.30;;;2.00;;
74670;SDS011;63196;39.564;2.628;2022-12-29T13:38:47;7.20;;;2.00;;
74670;SDS011;63196;39.564;2.628;2022-12-29T13:41:47;6.30;;;2.00;;
74670;SDS011;63196;39.564;2.628;2022-12-29T13:44:04;8.20;;;1.80;;
74670;SDS011;63196;39.564;2.628;2022-12-29T13:46:38;5.10;;;1.60;;
74670;SDS011;63196;39.564;2.628;2022-12-29T13:49:06;5.10;;;1.70;;
74670;SDS011;63196;39.564;2.628;2022-12-29T13:51:32;7.30;;;1.80;;
74670;SDS011;63196;39.564;2.628;2022-12-29T14:01:19;5.70;;;1.70;;
74670;SDS011;63196;39.564;2.628;2022-12-29T14:03:57;5.00;;;1.30;;
74670;SDS011;63196;39.564;2.628;2022-12-29T14:08:53;11.70;;;2.50;;
74670;SDS011;63196;39.564;2.628;2022-12-29T14:11:20;5.80;;;1.20;;
74670;SDS011;63196;39.564;2.628;2022-12-29T14:13:46;8.80;;;1.80;;
74670;SDS011;63196;39.564;2.628;2022-12-29T14:16:28;12.50;;;2.00;;
74670;SDS011;63196;39.564;2.628;2022-12-29T14:18:54;4.40;;;1.20;;
74670;SDS011;63196;39.564;2.628;2022-12-29T14:21:23;6.80;;;1.50;;
74670;SDS011;63196;39.564;2.628;2022-12-29T14:23:53;6.00;;;1.30;;
74670;SDS011;63196;39.564;2.628;2022-12-29T14:28:56;5.10;;;1.40;;
74670;SDS011;63196;39.564;2.628;2022-12-29T14:36:35;6.30;;;1.40;;
74670;SDS011;63196;39.564;2.628;2022-12-29T14:39:01;5.90;;;1.40;;
74670;SDS011;63196;39.564;2.628;2022-12-29T14:41:35;6.90;;;1.50;;
74670;SDS011;63196;39.564;2.628;2022-12-29T14:46:54;5.50;;;1.40;;
74670;SDS011;63196;39.564;2.628;2022-12-29T14:49:24;4.80;;;1.40;;
74670;SDS011;63196;39.564;2.628;2022-12-29T14:51:51;5.50;;;1.60;;
74670;SDS011;63196;39.564;2.628;2022-12-29T14:56:59;6.50;;;1.40;;
74670;SDS011;63196;39.564;2.628;2022-12-29T14:59:37;4.20;;;1.10;;
74670;SDS011;63196;39.564;2.628;2022-12-29T15:02:03;6.50;;;1.60;;
74670;SDS011;63196;39.564;2.628;2022-12-29T15:04:32;5.20;;;1.30;;
74670;SDS011;63196;39.564;2.628;2022-12-29T15:06:59;6.40;;;1.50;;
74670;SDS011;63196;39.564;2.628;2022-12-29T15:09:40;6.40;;;1.60;;
74670;SDS011;63196;39.564;2.628;2022-12-29T15:12:21;6.60;;;1.70;;
74670;SDS011;63196;39.564;2.628;2022-12-29T15:14:52;4.90;;;1.40;;
74670;SDS011;63196;39.564;2.628;2022-12-29T15:17:24;8.90;;;1.60;;
74670;SDS011;63196;39.564;2.628;2022-12-29T15:19:49;6.00;;;1.70;;
74670;SDS011;63196;39.564;2.628;2022-12-29T15:22:15;6.80;;;1.60;;
74670;SDS011;63196;39.564;2.628;2022-12-29T15:24:43;5.10;;;1.40;;
74670;SDS011;63196;39.564;2.628;2022-12-29T15:27:15;10.50;;;2.70;;
74670;SDS011;63196;39.564;2.628;2022-12-29T15:29:43;6.70;;;1.70;;
74670;SDS011;63196;39.564;2.628;2022-12-29T15:32:28;5.60;;;2.20;;
74670;SDS011;63196;39.564;2.628;2022-12-29T15:34:54;5.50;;;1.30;;
74670;SDS011;63196;39.564;2.628;2022-12-29T15:37:24;7.50;;;2.40;;
74670;SDS011;63196;39.564;2.628;2022-12-29T15:39:51;6.40;;;2.00;;
74670;SDS011;63196;39.564;2.628;2022-12-29T15:45:11;7.60;;;1.70;;
74670;SDS011;63196;39.564;2.628;2022-12-29T15:47:37;5.20;;;1.60;;
74670;SDS011;63196;39.564;2.628;2022-12-29T15:50:09;4.50;;;1.20;;
74670;SDS011;63196;39.564;2.628;2022-12-29T15:52:34;9.90;;;2.00;;
74670;SDS011;63196;39.564;2.628;2022-12-29T15:55:00;7.10;;;1.70;;
74670;SDS011;63196;39.564;2.628;2022-12-29T15:57:27;7.50;;;1.90;;
74670;SDS011;63196;39.564;2.628;2022-12-29T15:59:53;8.70;;;2.10;;
74670;SDS011;63196;39.564;2.628;2022-12-29T16:02:19;5.30;;;1.60;;
74670;SDS011;63196;39.564;2.628;2022-12-29T16:04:45;6.90;;;1.30;;
74670;SDS011;63196;39.564;2.628;2022-12-29T16:10:05;8.20;;;1.90;;
74670;SDS011;63196;39.564;2.628;2022-12-29T16:12:34;4.90;;;1.30;;
74670;SDS011;63196;39.564;2.628;2022-12-29T16:15:03;7.00;;;1.50;;
74670;SDS011;63196;39.564;2.628;2022-12-29T16:17:30;6.30;;;1.80;;
74670;SDS011;63196;39.564;2.628;2022-12-29T16:19:58;6.00;;;1.70;;
74670;SDS011;63196;39.564;2.628;2022-12-29T16:24:55;7.10;;;1.70;;
74670;SDS011;63196;39.564;2.628;2022-12-29T16:27:22;5.40;;;1.40;;
74670;SDS011;63196;39.564;2.628;2022-12-29T16:29:52;6.90;;;1.60;;
74670;SDS011;63196;39.564;2.628;2022-12-29T16:32:23;5.20;;;1.70;;
74670;SDS011;63196;39.564;2.628;2022-12-29T16:34:49;6.00;;;1.50;;
74670;SDS011;63196;39.564;2.628;2022-12-29T16:37:35;7.00;;;1.50;;
74670;SDS011;63196;39.564;2.628;2022-12-29T16:48:00;7.60;;;2.10;;
74670;SDS011;63196;39.564;2.628;2022-12-29T16:50:34;9.20;;;2.20;;
74670;SDS011;63196;39.564;2.628;2022-12-29T16:53:00;10.10;;;2.20;;
74670;SDS011;63196;39.564;2.628;2022-12-29T16:55:28;7.40;;;1.60;;
74670;SDS011;63196;39.564;2.628;2022-12-29T16:57:53;7.60;;;1.90;;
74670;SDS011;63196;39.564;2.628;2022-12-29T17:00:26;9.00;;;2.50;;
74670;SDS011;63196;39.564;2.628;2022-12-29T17:02:52;7.20;;;2.90;;
74670;SDS011;63196;39.564;2.628;2022-12-29T17:05:20;5.90;;;2.00;;
74670;SDS011;63196;39.564;2.628;2022-12-29T17:07:45;14.20;;;7.10;;
74670;SDS011;63196;39.564;2.628;2022-12-29T17:10:11;9.80;;;4.10;;
74670;SDS011;63196;39.564;2.628;2022-12-29T17:12:38;8.70;;;3.20;;
74670;SDS011;63196;39.564;2.628;2022-12-29T17:15:04;11.10;;;2.90;;
74670;SDS011;63196;39.564;2.628;2022-12-29T17:17:40;6.80;;;1.80;;
74670;SDS011;63196;39.564;2.628;2022-12-29T17:22:44;15.30;;;3.20;;
74670;SDS011;63196;39.564;2.628;2022-12-29T17:25:14;9.10;;;2.00;;
74670;SDS011;63196;39.564;2.628;2022-12-29T17:27:43;9.20;;;2.60;;
74670;SDS011;63196;39.564;2.628;2022-12-29T17:30:11;10.50;;;2.00;;
74670;SDS011;63196;39.564;2.628;2022-12-29T17:32:37;7.20;;;2.50;;
74670;SDS011;63196;39.564;2.628;2022-12-29T17:35:04;8.90;;;2.10;;
74670;SDS011;63196;39.564;2.628;2022-12-29T17:37:30;8.80;;;2.40;;
74670;SDS011;63196;39.564;2.628;2022-12-29T17:39:56;9.50;;;2.40;;
74670;SDS011;63196;39.564;2.628;2022-12-29T17:42:21;6.10;;;2.70;;